Time;durP1;ratioP1;P1;durP2;ratioP2;P2;SDS_P1;SDS_P2;PMS_P1;PMS_P2;Temp;Humidity;BMP_temperature;BMP_pressure;BME280_temperature;BME280_humidity;BME280_pressure;Samples;Min_cycle;Max_cycle;Signal;HPM_P1;HPM_P2
2023/03/17 00:01:20;;;;;;;5.30;4.60;;;;;;;;;;4972201;28;20212;-62
2023/03/17 00:03:48;;;;;;;6.00;5.50;;;;;;;;;;4955716;29;20198;-62
2023/03/17 00:06:17;;;;;;;7.18;6.22;;;;;;;;;;4955633;29;20206;-62
2023/03/17 00:08:45;;;;;;;6.78;5.13;;;;;;;;;;4964663;28;20284;-62
2023/03/17 00:11:12;;;;;;;6.20;5.32;;;;;;;;;;4974694;28;20200;-62
2023/03/17 00:13:40;;;;;;;5.82;4.30;;;;;;;;;;4974611;28;20203;-62
2023/03/17 00:16:14;;;;;;;8.13;5.15;;;;;;;;;;4974733;28;20201;-61
2023/03/17 00:18:42;;;;;;;7.05;4.72;;;;;;;;;;4974615;28;20655;-61
2023/03/17 00:21:12;;;;;;;5.40;4.20;;;;;;;;;;4974711;28;20216;-62
2023/03/17 00:23:39;;;;;;;6.15;4.50;;;;;;;;;;4975531;28;20197;-62
2023/03/17 00:26:07;;;;;;;4.82;4.40;;;;;;;;;;4974303;28;20200;-61
2023/03/17 00:28:34;;;;;;;8.48;5.50;;;;;;;;;;4974750;28;20247;-61
2023/03/17 00:31:02;;;;;;;5.00;4.50;;;;;;;;;;4974609;28;20197;-61
2023/03/17 00:33:33;;;;;;;5.38;4.60;;;;;;;;;;4974599;28;20225;-61
2023/03/17 00:36:01;;;;;;;6.40;4.50;;;;;;;;;;4974320;28;20197;-61
2023/03/17 00:38:28;;;;;;;5.22;4.72;;;;;;;;;;4974752;28;20201;-62
2023/03/17 00:40:55;;;;;;;7.75;4.60;;;;;;;;;;4974424;28;20197;-62
2023/03/17 00:43:22;;;;;;;8.93;4.93;;;;;;;;;;4974630;28;20200;-62
2023/03/17 00:45:49;;;;;;;5.35;4.43;;;;;;;;;;4974622;28;20199;-62
2023/03/17 00:48:18;;;;;;;7.05;5.78;;;;;;;;;;4974480;28;20193;-62
2023/03/17 00:50:48;;;;;;;5.22;4.72;;;;;;;;;;4974777;28;20209;-62
2023/03/17 00:53:16;;;;;;;5.25;4.45;;;;;;;;;;4974083;28;20250;-62
2023/03/17 00:55:44;;;;;;;8.82;4.72;;;;;;;;;;4974598;28;20220;-62
2023/03/17 00:58:13;;;;;;;9.50;4.90;;;;;;;;;;4974419;28;20556;-62
2023/03/17 01:00:41;;;;;;;4.60;4.20;;;;;;;;;;4974045;28;20201;-62
2023/03/17 01:03:10;;;;;;;5.15;4.53;;;;;;;;;;4977063;28;20204;-62
2023/03/17 01:05:37;;;;;;;6.28;4.30;;;;;;;;;;4978449;28;20205;-62
2023/03/17 01:08:06;;;;;;;5.85;4.50;;;;;;;;;;4977239;28;20603;-62
2023/03/17 01:10:34;;;;;;;5.40;4.90;;;;;;;;;;4978136;28;20209;-62
2023/03/17 01:13:01;;;;;;;7.20;4.70;;;;;;;;;;4977764;28;20217;-62
2023/03/17 01:15:30;;;;;;;6.10;4.40;;;;;;;;;;4978117;28;20197;-62
2023/03/17 01:17:57;;;;;;;10.75;4.70;;;;;;;;;;4978214;28;20217;-62
2023/03/17 01:20:26;;;;;;;6.70;4.78;;;;;;;;;;4978005;28;20206;-62
2023/03/17 01:22:54;;;;;;;5.88;4.20;;;;;;;;;;4977599;28;20297;-62
2023/03/17 01:25:22;;;;;;;4.60;3.55;;;;;;;;;;4977945;28;20607;-62
2023/03/17 01:27:50;;;;;;;4.30;3.90;;;;;;;;;;4977470;28;20288;-62
2023/03/17 01:30:23;;;;;;;4.50;3.80;;;;;;;;;;4977809;28;20198;-62
2023/03/17 01:32:50;;;;;;;4.60;4.20;;;;;;;;;;4977984;28;20221;-62
2023/03/17 01:35:18;;;;;;;6.10;4.80;;;;;;;;;;4977490;28;20212;-62
2023/03/17 01:37:45;;;;;;;5.00;4.50;;;;;;;;;;4977226;28;20253;-62
2023/03/17 01:40:14;;;;;;;5.75;4.80;;;;;;;;;;4977712;28;20292;-61
2023/03/17 01:42:45;;;;;;;5.97;4.72;;;;;;;;;;4977251;28;20201;-62
2023/03/17 01:45:28;;;;;;;5.20;4.70;;;;;;;;;;4977785;28;20190;-61
2023/03/17 01:47:55;;;;;;;5.40;4.55;;;;;;;;;;4977288;28;20240;-61
2023/03/17 01:50:23;;;;;;;4.38;3.90;;;;;;;;;;4977100;28;20201;-61
2023/03/17 01:52:50;;;;;;;5.10;4.60;;;;;;;;;;4976644;28;20249;-61
2023/03/17 01:55:18;;;;;;;7.20;4.60;;;;;;;;;;4977397;28;20198;-61
2023/03/17 01:57:49;;;;;;;11.35;4.88;;;;;;;;;;4977298;28;20205;-61
2023/03/17 02:00:18;;;;;;;4.28;3.65;;;;;;;;;;4977688;28;20193;-61
2023/03/17 02:02:47;;;;;;;5.13;3.88;;;;;;;;;;4976277;28;20205;-61
2023/03/17 02:05:16;;;;;;;5.43;4.88;;;;;;;;;;4976873;28;20201;-61
2023/03/17 02:07:44;;;;;;;8.27;4.10;;;;;;;;;;4976214;28;20245;-61
2023/03/17 02:10:12;;;;;;;8.15;3.78;;;;;;;;;;4974725;28;20201;-61
2023/03/17 02:12:40;;;;;;;3.95;3.65;;;;;;;;;;4976708;28;20573;-61
2023/03/17 02:15:10;;;;;;;4.95;3.60;;;;;;;;;;4975875;28;20647;-61
2023/03/17 02:17:37;;;;;;;4.80;4.38;;;;;;;;;;4976586;28;20201;-62
2023/03/17 02:20:28;;;;;;;4.68;4.28;;;;;;;;;;4976948;28;20568;-61
2023/03/17 02:22:57;;;;;;;4.40;3.70;;;;;;;;;;4976587;28;20205;-62
2023/03/17 02:25:25;;;;;;;3.65;3.35;;;;;;;;;;4976805;28;20296;-62
2023/03/17 02:27:54;;;;;;;3.92;3.53;;;;;;;;;;4976704;28;20199;-62
2023/03/17 02:30:22;;;;;;;5.88;4.15;;;;;;;;;;4976901;28;20229;-61
2023/03/17 02:32:49;;;;;;;4.38;3.97;;;;;;;;;;4976247;28;20228;-63
2023/03/17 02:35:17;;;;;;;3.45;3.20;;;;;;;;;;4976297;28;20209;-62
2023/03/17 02:37:45;;;;;;;4.28;3.70;;;;;;;;;;4976321;28;20204;-61
2023/03/17 02:40:15;;;;;;;3.47;3.17;;;;;;;;;;4976186;28;20212;-61
2023/03/17 02:42:43;;;;;;;4.55;3.78;;;;;;;;;;4976479;28;20205;-61
2023/03/17 02:45:11;;;;;;;4.15;3.45;;;;;;;;;;4976518;28;20203;-61
2023/03/17 02:47:38;;;;;;;5.20;3.70;;;;;;;;;;4976059;28;20673;-61
2023/03/17 02:50:06;;;;;;;4.50;3.50;;;;;;;;;;4976462;28;20201;-62
2023/03/17 02:52:34;;;;;;;4.43;4.03;;;;;;;;;;4976002;28;20217;-61
2023/03/17 02:55:01;;;;;;;3.50;3.10;;;;;;;;;;4976401;28;20197;-61
2023/03/17 02:57:29;;;;;;;6.70;3.45;;;;;;;;;;4975950;28;20200;-61
2023/03/17 02:59:57;;;;;;;5.43;4.30;;;;;;;;;;4976151;28;20568;-61
2023/03/17 03:02:24;;;;;;;6.57;3.88;;;;;;;;;;4975261;28;20201;-61
2023/03/17 03:04:52;;;;;;;4.95;4.45;;;;;;;;;;4975728;28;20296;-61
2023/03/17 03:07:19;;;;;;;4.05;3.30;;;;;;;;;;4976092;28;20284;-61
2023/03/17 03:09:46;;;;;;;4.22;3.60;;;;;;;;;;4974795;28;20197;-62
2023/03/17 03:12:13;;;;;;;6.85;4.20;;;;;;;;;;4975925;28;20205;-61
2023/03/17 03:14:42;;;;;;;4.78;3.70;;;;;;;;;;4975721;28;20205;-61
2023/03/17 03:17:09;;;;;;;4.43;3.72;;;;;;;;;;4975848;28;20201;-61
2023/03/17 03:19:37;;;;;;;12.52;4.20;;;;;;;;;;4975425;28;20197;-61
2023/03/17 03:22:04;;;;;;;3.90;3.15;;;;;;;;;;4975558;28;20257;-61
2023/03/17 03:24:31;;;;;;;6.10;4.35;;;;;;;;;;4975050;28;20197;-61
2023/03/17 03:26:58;;;;;;;5.60;4.35;;;;;;;;;;4975425;28;20658;-61
2023/03/17 03:29:26;;;;;;;4.88;3.53;;;;;;;;;;4975561;28;20209;-62
2023/03/17 03:31:54;;;;;;;4.68;4.28;;;;;;;;;;4975590;28;20202;-61
2023/03/17 03:34:22;;;;;;;6.60;3.40;;;;;;;;;;4975398;28;20299;-62
2023/03/17 03:36:49;;;;;;;4.85;3.25;;;;;;;;;;4976117;28;20554;-61
2023/03/17 03:39:16;;;;;;;4.03;3.60;;;;;;;;;;4975364;28;20204;-62
2023/03/17 03:41:43;;;;;;;5.68;4.05;;;;;;;;;;4975126;28;20202;-61
2023/03/17 03:44:10;;;;;;;7.50;3.50;;;;;;;;;;4974994;28;20659;-62
2023/03/17 03:46:38;;;;;;;8.25;3.75;;;;;;;;;;4975632;28;20201;-61
2023/03/17 03:49:06;;;;;;;7.07;3.30;;;;;;;;;;4975201;28;20295;-62
2023/03/17 03:51:33;;;;;;;3.83;3.35;;;;;;;;;;4974922;28;20215;-61
2023/03/17 03:54:01;;;;;;;3.67;3.35;;;;;;;;;;4974645;28;20594;-62
2023/03/17 03:56:28;;;;;;;4.75;4.28;;;;;;;;;;4974897;28;20197;-62
2023/03/17 03:58:56;;;;;;;3.45;3.15;;;;;;;;;;4974815;28;20204;-62
2023/03/17 04:01:23;;;;;;;4.07;3.53;;;;;;;;;;4974163;28;20201;-62
2023/03/17 04:03:50;;;;;;;4.38;3.58;;;;;;;;;;4975054;28;20602;-62
2023/03/17 04:06:19;;;;;;;4.00;3.60;;;;;;;;;;4975043;28;20351;-61
2023/03/17 04:08:46;;;;;;;5.40;4.47;;;;;;;;;;4973614;28;20213;-61
2023/03/17 04:11:13;;;;;;;4.10;3.80;;;;;;;;;;4974709;28;20197;-61
2023/03/17 04:13:41;;;;;;;5.28;3.88;;;;;;;;;;4974973;28;20217;-61
2023/03/17 04:16:08;;;;;;;3.80;3.50;;;;;;;;;;4974881;28;20205;-61
2023/03/17 04:18:35;;;;;;;6.85;3.72;;;;;;;;;;4974544;28;20200;-61
2023/03/17 04:21:03;;;;;;;4.10;3.70;;;;;;;;;;4974785;28;20228;-61
2023/03/17 04:23:31;;;;;;;6.20;4.35;;;;;;;;;;4974713;28;20204;-61
2023/03/17 04:25:58;;;;;;;3.60;3.28;;;;;;;;;;4974751;28;20287;-61
2023/03/17 04:28:25;;;;;;;5.13;3.90;;;;;;;;;;4973070;28;20260;-61
2023/03/17 04:30:53;;;;;;;4.60;4.20;;;;;;;;;;4974038;28;20293;-61
2023/03/17 04:33:20;;;;;;;4.28;3.88;;;;;;;;;;4974026;28;20223;-61
2023/03/17 04:35:47;;;;;;;6.32;4.07;;;;;;;;;;4974087;28;20274;-61
2023/03/17 04:38:14;;;;;;;5.13;4.35;;;;;;;;;;4974073;28;20235;-61
2023/03/17 04:40:43;;;;;;;4.28;3.90;;;;;;;;;;4974309;28;20196;-61
2023/03/17 04:43:10;;;;;;;7.43;4.10;;;;;;;;;;4974337;28;20204;-62
2023/03/17 04:45:37;;;;;;;6.25;4.20;;;;;;;;;;4974273;28;20205;-61
2023/03/17 04:48:05;;;;;;;5.75;4.60;;;;;;;;;;4974389;28;20201;-61
2023/03/17 04:50:32;;;;;;;4.43;4.00;;;;;;;;;;4974452;28;20197;-61
2023/03/17 04:52:59;;;;;;;5.00;3.92;;;;;;;;;;4974154;28;20229;-61
2023/03/17 04:55:26;;;;;;;10.18;4.30;;;;;;;;;;4974502;28;20208;-61
2023/03/17 04:57:55;;;;;;;6.85;4.68;;;;;;;;;;4974232;28;20197;-61
2023/03/17 05:00:22;;;;;;;4.03;3.72;;;;;;;;;;4974204;28;20201;-61
2023/03/17 05:02:49;;;;;;;6.22;4.70;;;;;;;;;;4974195;28;20243;-61
2023/03/17 05:05:17;;;;;;;5.72;4.60;;;;;;;;;;4974213;28;20211;-61
2023/03/17 05:07:44;;;;;;;4.45;3.83;;;;;;;;;;4974285;28;20197;-61
2023/03/17 05:10:12;;;;;;;5.20;3.90;;;;;;;;;;4974175;28;20202;-61
2023/03/17 05:12:39;;;;;;;4.57;3.60;;;;;;;;;;4973933;28;20203;-61
2023/03/17 05:15:08;;;;;;;6.07;4.28;;;;;;;;;;4974159;28;20672;-61
2023/03/17 05:17:36;;;;;;;4.20;3.80;;;;;;;;;;4974245;28;20204;-61
2023/03/17 05:20:03;;;;;;;5.00;4.50;;;;;;;;;;4973875;28;20597;-61
2023/03/17 05:22:30;;;;;;;5.30;4.18;;;;;;;;;;4974142;28;20205;-61
2023/03/17 05:24:57;;;;;;;5.07;4.13;;;;;;;;;;4974028;28;20220;-61
2023/03/17 05:27:25;;;;;;;3.72;3.35;;;;;;;;;;4974082;28;20229;-61
2023/03/17 05:29:52;;;;;;;5.55;4.82;;;;;;;;;;4973812;28;20198;-61
2023/03/17 05:32:20;;;;;;;6.40;4.50;;;;;;;;;;4974181;28;20291;-60
2023/03/17 05:34:48;;;;;;;5.10;4.60;;;;;;;;;;4973898;28;20582;-61
2023/03/17 05:37:16;;;;;;;6.38;4.30;;;;;;;;;;4974065;28;20215;-61
2023/03/17 05:39:43;;;;;;;5.85;3.75;;;;;;;;;;4973798;28;20204;-60
2023/03/17 05:42:10;;;;;;;6.03;4.55;;;;;;;;;;4973678;28;20203;-61
2023/03/17 05:44:38;;;;;;;7.32;4.72;;;;;;;;;;4974017;28;20205;-60
2023/03/17 05:47:06;;;;;;;7.22;5.05;;;;;;;;;;4973513;28;20271;-63
2023/03/17 05:49:35;;;;;;;7.70;4.85;;;;;;;;;;4977132;28;20251;-70
2023/03/17 05:52:02;;;;;;;8.02;4.80;;;;;;;;;;4977212;28;20198;-61
2023/03/17 05:54:30;;;;;;;6.70;4.97;;;;;;;;;;4977291;28;20232;-61
2023/03/17 05:56:57;;;;;;;5.10;4.60;;;;;;;;;;4977245;28;20212;-61
2023/03/17 05:59:24;;;;;;;6.78;5.22;;;;;;;;;;4977133;28;20203;-61
2023/03/17 06:01:51;;;;;;;5.90;5.30;;;;;;;;;;4976636;28;20208;-61
2023/03/17 06:04:18;;;;;;;8.32;5.78;;;;;;;;;;4976859;28;20203;-62
2023/03/17 06:06:47;;;;;;;6.20;5.45;;;;;;;;;;4976842;28;20594;-62
2023/03/17 06:09:14;;;;;;;12.60;5.65;;;;;;;;;;4976887;28;20211;-61
2023/03/17 06:11:42;;;;;;;6.93;5.60;;;;;;;;;;4976714;28;20228;-61
2023/03/17 06:14:10;;;;;;;5.53;4.95;;;;;;;;;;4976906;28;20702;-61
2023/03/17 06:16:37;;;;;;;5.97;5.40;;;;;;;;;;4976461;28;20214;-61
2023/03/17 06:19:04;;;;;;;9.10;5.75;;;;;;;;;;4976961;28;20229;-61
2023/03/17 06:21:31;;;;;;;6.90;5.30;;;;;;;;;;4976428;28;20200;-61
2023/03/17 06:24:00;;;;;;;5.85;4.97;;;;;;;;;;4976415;28;20204;-61
2023/03/17 06:26:28;;;;;;;6.22;5.30;;;;;;;;;;4976253;28;20198;-61
2023/03/17 06:28:55;;;;;;;6.78;5.00;;;;;;;;;;4976283;28;20199;-61
2023/03/17 06:31:22;;;;;;;11.38;6.13;;;;;;;;;;4976348;28;20209;-61
2023/03/17 06:33:50;;;;;;;8.02;6.50;;;;;;;;;;4976331;28;20251;-61
2023/03/17 06:36:17;;;;;;;8.13;5.70;;;;;;;;;;4976339;28;20205;-61
2023/03/17 06:38:44;;;;;;;6.05;5.22;;;;;;;;;;4976687;28;20557;-61
2023/03/17 06:41:13;;;;;;;6.25;5.18;;;;;;;;;;4976556;28;20558;-61
2023/03/17 06:43:40;;;;;;;9.10;5.28;;;;;;;;;;4976545;28;20200;-61
2023/03/17 06:46:08;;;;;;;6.63;5.97;;;;;;;;;;4976101;28;20290;-61
2023/03/17 06:48:35;;;;;;;7.10;5.57;;;;;;;;;;4976190;28;20201;-61
2023/03/17 06:51:02;;;;;;;20.45;12.43;;;;;;;;;;4976415;28;20559;-61
2023/03/17 06:53:30;;;;;;;16.40;10.75;;;;;;;;;;4976072;28;20272;-61
2023/03/17 06:55:57;;;;;;;8.45;5.43;;;;;;;;;;4975930;28;20200;-61
2023/03/17 06:58:26;;;;;;;12.70;9.20;;;;;;;;;;4976252;28;20207;-61
2023/03/17 07:00:53;;;;;;;13.80;8.10;;;;;;;;;;4975952;28;20296;-61
2023/03/17 07:03:21;;;;;;;13.27;6.00;;;;;;;;;;4975820;28;20726;-62
2023/03/17 07:05:48;;;;;;;6.78;6.00;;;;;;;;;;4976147;28;20194;-61
2023/03/17 07:08:16;;;;;;;9.20;4.60;;;;;;;;;;4975966;28;20248;-61
2023/03/17 07:10:44;;;;;;;5.90;4.65;;;;;;;;;;4975784;28;20198;-62
2023/03/17 07:13:12;;;;;;;6.32;5.03;;;;;;;;;;4975981;28;20197;-61
2023/03/17 07:15:41;;;;;;;6.47;4.40;;;;;;;;;;4975855;28;20229;-61
2023/03/17 07:18:09;;;;;;;9.45;5.05;;;;;;;;;;4975414;28;20197;-62
2023/03/17 07:20:37;;;;;;;10.50;4.47;;;;;;;;;;4976069;28;20681;-61
2023/03/17 07:23:04;;;;;;;8.98;5.00;;;;;;;;;;4975249;28;20204;-63
2023/03/17 07:25:31;;;;;;;20.75;13.38;;;;;;;;;;4975332;28;20201;-61
2023/03/17 07:27:58;;;;;;;9.65;7.25;;;;;;;;;;4975217;28;20201;-62
2023/03/17 07:30:26;;;;;;;12.95;6.45;;;;;;;;;;4975416;28;20655;-63
2023/03/17 07:32:55;;;;;;;6.03;4.80;;;;;;;;;;4975569;28;20261;-63
2023/03/17 07:35:22;;;;;;;6.30;4.80;;;;;;;;;;4975660;28;20575;-62
2023/03/17 07:37:49;;;;;;;11.13;5.05;;;;;;;;;;4975645;28;20284;-63
2023/03/17 07:40:17;;;;;;;11.68;5.30;;;;;;;;;;4975524;28;20224;-63
2023/03/17 07:42:45;;;;;;;9.45;7.60;;;;;;;;;;4975115;28;20200;-63
2023/03/17 07:45:12;;;;;;;10.82;5.45;;;;;;;;;;4975125;28;20204;-62
2023/03/17 07:47:40;;;;;;;7.38;3.97;;;;;;;;;;4975334;28;20619;-61
2023/03/17 07:50:09;;;;;;;6.57;5.00;;;;;;;;;;4975362;28;20288;-61
2023/03/17 07:52:37;;;;;;;7.78;3.90;;;;;;;;;;4974797;28;20202;-62
2023/03/17 07:55:07;;;;;;;6.60;4.22;;;;;;;;;;4975044;28;20216;-62
2023/03/17 07:57:34;;;;;;;9.27;4.57;;;;;;;;;;4975291;28;20553;-62
2023/03/17 08:00:02;;;;;;;7.90;4.47;;;;;;;;;;4974847;28;20655;-62
2023/03/17 08:02:30;;;;;;;9.03;4.63;;;;;;;;;;4974701;28;20202;-62
2023/03/17 08:04:57;;;;;;;6.10;4.00;;;;;;;;;;4974848;28;20471;-62
2023/03/17 08:07:26;;;;;;;5.63;4.97;;;;;;;;;;4974455;28;20441;-61
2023/03/17 08:09:53;;;;;;;6.17;4.30;;;;;;;;;;4974554;28;20203;-62
2023/03/17 08:12:21;;;;;;;9.13;4.80;;;;;;;;;;4973592;28;20458;-62
2023/03/17 08:14:48;;;;;;;6.23;3.50;;;;;;;;;;4974447;28;20482;-62
2023/03/17 08:17:15;;;;;;;11.90;4.15;;;;;;;;;;4974912;28;20441;-62
2023/03/17 08:19:42;;;;;;;6.00;3.67;;;;;;;;;;4974709;28;20198;-62
2023/03/17 08:22:10;;;;;;;6.83;4.10;;;;;;;;;;4974142;28;20534;-62
2023/03/17 08:35:52;;;;;;;5.30;4.10;;;;;;;;;;5010281;28;20495;-68
2023/03/17 08:38:19;;;;;;;12.23;4.60;;;;;;;;;;5013855;28;20531;-68
2023/03/17 08:40:48;;;;;;;6.50;4.00;;;;;;;;;;5013805;28;20534;-69
2023/03/17 08:43:17;;;;;;;7.73;3.77;;;;;;;;;;5013346;28;20453;-68
2023/03/17 08:45:44;;;;;;;11.87;3.60;;;;;;;;;;5012920;28;20462;-68
2023/03/17 08:48:11;;;;;;;3.40;3.10;;;;;;;;;;5013437;28;20444;-68
2023/03/17 08:50:39;;;;;;;4.50;3.40;;;;;;;;;;5013766;28;20452;-68
2023/03/17 08:53:08;;;;;;;9.20;3.90;;;;;;;;;;5013981;28;20455;-69
2023/03/17 08:55:35;;;;;;;37.60;5.73;;;;;;;;;;5013021;28;20502;-68
2023/03/17 08:58:04;;;;;;;7.97;4.37;;;;;;;;;;5013200;28;20453;-69
2023/03/17 09:00:31;;;;;;;3.90;3.50;;;;;;;;;;5013350;28;20482;-68
2023/03/17 09:02:58;;;;;;;8.43;4.40;;;;;;;;;;5013218;28;20528;-68
2023/03/17 09:05:25;;;;;;;4.83;2.97;;;;;;;;;;5013224;28;20931;-68
2023/03/17 09:07:53;;;;;;;5.47;3.20;;;;;;;;;;5012934;28;21016;-69
2023/03/17 09:10:22;;;;;;;3.70;3.13;;;;;;;;;;5013324;28;20486;-68
2023/03/17 09:12:50;;;;;;;7.10;3.67;;;;;;;;;;5013251;28;20437;-68
2023/03/17 09:15:17;;;;;;;3.50;3.20;;;;;;;;;;5013666;28;20504;-68
2023/03/17 09:17:44;;;;;;;7.53;4.30;;;;;;;;;;5012670;28;20459;-68
2023/03/17 09:20:12;;;;;;;6.13;3.53;;;;;;;;;;5013001;28;20957;-68
2023/03/17 09:22:40;;;;;;;7.30;4.50;;;;;;;;;;5013874;28;20456;-69
2023/03/17 09:25:07;;;;;;;4.17;2.83;;;;;;;;;;5017118;28;20456;-68
2023/03/17 09:27:36;;;;;;;7.93;3.27;;;;;;;;;;5016935;28;20463;-68
2023/03/17 09:30:03;;;;;;;10.00;3.07;;;;;;;;;;5016767;28;20725;-68
2023/03/17 09:32:31;;;;;;;5.60;2.97;;;;;;;;;;5016532;28;20504;-68
2023/03/17 09:34:58;;;;;;;4.33;3.10;;;;;;;;;;5016239;28;20508;-68
2023/03/17 09:37:25;;;;;;;2.63;2.30;;;;;;;;;;5017341;28;20444;-68
2023/03/17 09:39:52;;;;;;;3.53;2.87;;;;;;;;;;5016898;28;20457;-68
2023/03/17 09:42:35;;;;;;;5.17;2.50;;;;;;;;;;5016772;28;20441;-68
2023/03/17 09:45:06;;;;;;;5.00;2.53;;;;;;;;;;5016343;28;20433;-68
2023/03/17 09:47:46;;;;;;;3.57;2.73;;;;;;;;;;5016575;28;20434;-68
2023/03/17 09:50:16;;;;;;;7.47;3.40;;;;;;;;;;5016264;28;20813;-68
2023/03/17 09:52:43;;;;;;;9.70;3.50;;;;;;;;;;5016110;28;20458;-68
2023/03/17 09:55:17;;;;;;;4.57;2.73;;;;;;;;;;5016734;28;20482;-68
2023/03/17 09:57:44;;;;;;;5.40;3.27;;;;;;;;;;5016588;28;20438;-68
2023/03/17 10:00:15;;;;;;;7.47;3.30;;;;;;;;;;5016325;28;20445;-67
2023/03/17 10:02:43;;;;;;;3.23;2.93;;;;;;;;;;5015975;28;20484;-68
2023/03/17 10:05:12;;;;;;;6.80;3.30;;;;;;;;;;5016519;28;20878;-68
2023/03/17 10:07:42;;;;;;;2.97;2.57;;;;;;;;;;5016153;28;20453;-68
2023/03/17 10:10:14;;;;;;;6.23;3.60;;;;;;;;;;5015942;28;20438;-68
2023/03/17 10:12:46;;;;;;;3.40;3.10;;;;;;;;;;5016235;28;20522;-68
2023/03/17 10:15:18;;;;;;;5.37;3.27;;;;;;;;;;5016083;28;20478;-68
2023/03/17 10:17:46;;;;;;;4.33;3.07;;;;;;;;;;5016434;28;20794;-67
2023/03/17 10:20:16;;;;;;;3.47;3.17;;;;;;;;;;5016051;28;20480;-68
2023/03/17 10:22:46;;;;;;;3.50;3.00;;;;;;;;;;5015765;28;20932;-68
2023/03/17 10:25:16;;;;;;;6.03;3.13;;;;;;;;;;5016304;28;20525;-68
2023/03/17 10:27:45;;;;;;;4.73;2.90;;;;;;;;;;5016411;28;20443;-68
2023/03/17 10:30:15;;;;;;;3.27;2.97;;;;;;;;;;5015854;28;20441;-68
2023/03/17 10:32:44;;;;;;;9.23;3.00;;;;;;;;;;5015445;28;20457;-68
2023/03/17 10:35:12;;;;;;;3.53;3.23;;;;;;;;;;5014637;28;20486;-68
2023/03/17 10:37:41;;;;;;;4.67;2.80;;;;;;;;;;5015751;28;20450;-68
2023/03/17 10:40:10;;;;;;;4.07;3.43;;;;;;;;;;5015875;28;20975;-68
2023/03/17 10:42:46;;;;;;;4.03;3.63;;;;;;;;;;5015736;28;20457;-68
2023/03/17 10:45:16;;;;;;;5.57;3.27;;;;;;;;;;5015640;28;20521;-68
2023/03/17 10:47:47;;;;;;;4.40;3.40;;;;;;;;;;5015717;28;20435;-68
2023/03/17 10:50:20;;;;;;;8.30;3.37;;;;;;;;;;5015682;28;20445;-68
2023/03/17 10:52:48;;;;;;;3.80;3.20;;;;;;;;;;5015800;28;20443;-68
2023/03/17 10:55:16;;;;;;;6.00;3.47;;;;;;;;;;5014919;28;20478;-68
2023/03/17 10:57:50;;;;;;;5.33;3.17;;;;;;;;;;5015397;28;20447;-68
2023/03/17 11:00:19;;;;;;;4.90;3.20;;;;;;;;;;5015457;28;20816;-68
2023/03/17 11:02:52;;;;;;;5.43;2.83;;;;;;;;;;5014945;28;20449;-68
2023/03/17 11:05:20;;;;;;;8.70;3.00;;;;;;;;;;5015463;28;20451;-68
2023/03/17 11:07:47;;;;;;;8.00;3.60;;;;;;;;;;5014766;28;20510;-68
2023/03/17 11:10:18;;;;;;;6.03;3.40;;;;;;;;;;5014700;28;20955;-67
2023/03/17 11:12:45;;;;;;;4.17;3.60;;;;;;;;;;5014733;28;20512;-68
2023/03/17 11:15:15;;;;;;;6.03;3.60;;;;;;;;;;5014448;28;20487;-68
2023/03/17 11:17:46;;;;;;;5.53;3.40;;;;;;;;;;5015275;28;20438;-68
2023/03/17 11:20:25;;;;;;;6.10;3.20;;;;;;;;;;5014620;28;20521;-69
2023/03/17 11:22:56;;;;;;;5.13;3.30;;;;;;;;;;5015215;28;20434;-68
2023/03/17 11:25:24;;;;;;;8.40;3.23;;;;;;;;;;5015013;28;20434;-68
2023/03/17 11:27:54;;;;;;;4.00;3.60;;;;;;;;;;5014764;28;20488;-69
2023/03/17 11:30:26;;;;;;;4.53;3.30;;;;;;;;;;5014382;28;20424;-68
2023/03/17 11:32:56;;;;;;;4.10;3.50;;;;;;;;;;5014818;28;20500;-69
2023/03/17 11:35:31;;;;;;;5.13;3.50;;;;;;;;;;5014375;28;20490;-68
2023/03/17 11:38:03;;;;;;;5.50;3.27;;;;;;;;;;5015360;28;20430;-69
2023/03/17 11:40:33;;;;;;;5.07;2.97;;;;;;;;;;5014870;28;20919;-68
2023/03/17 11:43:09;;;;;;;5.47;3.60;;;;;;;;;;5014408;28;20453;-68
2023/03/17 11:45:38;;;;;;;7.77;4.30;;;;;;;;;;5014476;28;20438;-68
2023/03/17 11:48:13;;;;;;;3.40;2.97;;;;;;;;;;5014144;28;20454;-69
2023/03/17 11:50:46;;;;;;;4.70;3.33;;;;;;;;;;5014090;28;20431;-69
2023/03/17 11:53:21;;;;;;;3.20;2.90;;;;;;;;;;5014388;28;20434;-69
2023/03/17 11:55:50;;;;;;;4.37;3.00;;;;;;;;;;5014145;28;20515;-68
2023/03/17 11:58:23;;;;;;;5.67;3.20;;;;;;;;;;5013855;28;20466;-69
2023/03/17 12:00:52;;;;;;;6.00;2.83;;;;;;;;;;5014619;28;20427;-69
2023/03/17 12:03:24;;;;;;;5.67;2.90;;;;;;;;;;5013937;28;20920;-68
2023/03/17 12:05:57;;;;;;;6.10;3.50;;;;;;;;;;5013902;28;20455;-68
2023/03/17 12:08:28;;;;;;;3.97;3.60;;;;;;;;;;5014556;28;20894;-69
2023/03/17 12:10:58;;;;;;;4.17;2.97;;;;;;;;;;5014630;28;20505;-69
2023/03/17 12:13:29;;;;;;;4.80;3.30;;;;;;;;;;5014313;28;20474;-68
2023/03/17 12:15:57;;;;;;;5.67;3.33;;;;;;;;;;5013610;28;20474;-68
2023/03/17 12:18:26;;;;;;;5.03;2.90;;;;;;;;;;5014015;28;20450;-68
2023/03/17 12:20:58;;;;;;;4.50;3.90;;;;;;;;;;5013850;28;20440;-69
2023/03/17 12:23:29;;;;;;;7.50;2.93;;;;;;;;;;5014633;28;20440;-68
2023/03/17 12:26:00;;;;;;;4.20;3.33;;;;;;;;;;5013523;28;20439;-69
2023/03/17 12:28:29;;;;;;;8.53;4.20;;;;;;;;;;5013867;28;20759;-69
2023/03/17 12:31:00;;;;;;;9.50;3.43;;;;;;;;;;5014371;28;20461;-69
2023/03/17 12:33:31;;;;;;;5.43;3.50;;;;;;;;;;5014370;28;20433;-67
2023/03/17 12:36:00;;;;;;;4.60;2.80;;;;;;;;;;5013765;28;20807;-68
2023/03/17 12:38:32;;;;;;;4.27;2.70;;;;;;;;;;5014475;28;20436;-68
2023/03/17 12:41:17;;;;;;;5.50;3.10;;;;;;;;;;5013823;28;20434;-68
2023/03/17 12:43:49;;;;;;;5.77;3.43;;;;;;;;;;5013379;28;20537;-68
2023/03/17 12:46:30;;;;;;;5.90;3.00;;;;;;;;;;5014131;28;20483;-68
2023/03/17 12:49:07;;;;;;;4.73;3.10;;;;;;;;;;5013332;28;20427;-67
2023/03/17 12:51:49;;;;;;;5.53;3.70;;;;;;;;;;5013648;28;20433;-67
2023/03/17 12:54:20;;;;;;;6.57;3.00;;;;;;;;;;5013326;28;20436;-67
2023/03/17 12:56:48;;;;;;;3.97;2.90;;;;;;;;;;5012969;28;20490;-68
2023/03/17 12:59:20;;;;;;;6.07;3.30;;;;;;;;;;5016709;28;20443;-67
2023/03/17 13:01:53;;;;;;;4.57;4.10;;;;;;;;;;5017672;28;20487;-67
2023/03/17 13:04:23;;;;;;;4.90;3.83;;;;;;;;;;5017667;28;20445;-67
2023/03/17 13:06:58;;;;;;;4.60;3.63;;;;;;;;;;5017356;28;20440;-67
2023/03/17 13:09:38;;;;;;;6.60;2.87;;;;;;;;;;5017817;28;20445;-67
2023/03/17 13:12:07;;;;;;;5.27;3.23;;;;;;;;;;5017515;28;20428;-67
2023/03/17 13:14:42;;;;;;;7.03;2.77;;;;;;;;;;5017189;28;20451;-67
2023/03/17 13:17:25;;;;;;;3.83;2.80;;;;;;;;;;5016689;28;20474;-67
2023/03/17 13:19:56;;;;;;;3.23;2.77;;;;;;;;;;5016955;28;20454;-67
2023/03/17 13:22:35;;;;;;;4.90;2.80;;;;;;;;;;5017377;28;20513;-67
2023/03/17 13:25:18;;;;;;;5.73;3.10;;;;;;;;;;5017419;28;20459;-67
2023/03/17 13:27:47;;;;;;;4.73;2.77;;;;;;;;;;5014951;28;20455;-67
2023/03/17 13:30:33;;;;;;;4.57;2.87;;;;;;;;;;5016771;28;20477;-67
2023/03/17 13:33:18;;;;;;;8.70;3.27;;;;;;;;;;5016850;28;20493;-68
2023/03/17 13:35:48;;;;;;;6.40;3.57;;;;;;;;;;5016375;28;20499;-68
2023/03/17 13:38:41;;;;;;;5.53;3.10;;;;;;;;;;5016500;28;20533;-68
2023/03/17 13:41:20;;;;;;;3.90;2.63;;;;;;;;;;5016831;28;20526;-67
2023/03/17 13:44:02;;;;;;;4.80;3.03;;;;;;;;;;5016756;28;20510;-77
2023/03/17 13:46:35;;;;;;;3.70;3.33;;;;;;;;;;5014179;28;20541;-67
2023/03/17 13:49:03;;;;;;;7.97;2.60;;;;;;;;;;5017231;28;20423;-67
2023/03/17 13:51:33;;;;;;;7.63;6.00;;;;;;;;;;5016742;28;20442;-67
2023/03/17 13:54:09;;;;;;;6.03;4.70;;;;;;;;;;5016230;28;20450;-67
2023/03/17 13:56:47;;;;;;;9.93;8.80;;;;;;;;;;5016391;28;20983;-68
2023/03/17 13:59:15;;;;;;;5.03;4.37;;;;;;;;;;5016283;28;20793;-66
2023/03/17 14:01:46;;;;;;;14.93;7.70;;;;;;;;;;5016429;28;20451;-67
2023/03/17 14:04:17;;;;;;;6.20;3.50;;;;;;;;;;5016419;28;20504;-67
2023/03/17 14:06:46;;;;;;;18.03;14.53;;;;;;;;;;5010558;28;20450;-69
2023/03/17 14:09:20;;;;;;;30.40;27.10;;;;;;;;;;5015345;28;20500;-68
2023/03/17 14:11:48;;;;;;;15.87;14.40;;;;;;;;;;5016031;28;20432;-68
2023/03/17 14:14:19;;;;;;;10.70;6.67;;;;;;;;;;5016042;28;20450;-67
2023/03/17 14:16:51;;;;;;;7.17;5.97;;;;;;;;;;5015855;28;20561;-67
2023/03/17 14:19:20;;;;;;;31.70;28.00;;;;;;;;;;5015895;28;20534;-67
2023/03/17 14:21:47;;;;;;;6.90;6.20;;;;;;;;;;5015990;28;20439;-68
2023/03/17 14:24:21;;;;;;;8.03;6.20;;;;;;;;;;5015883;28;20447;-67
2023/03/17 14:26:49;;;;;;;5.20;3.77;;;;;;;;;;5015845;28;20450;-67
2023/03/17 14:29:17;;;;;;;24.67;21.13;;;;;;;;;;5015386;28;20460;-67
2023/03/17 14:31:47;;;;;;;119.77;77.83;;;;;;;;;;5015683;28;20445;-69
2023/03/17 14:34:15;;;;;;;39.37;27.50;;;;;;;;;;5015444;28;20963;-67
2023/03/17 14:36:42;;;;;;;41.10;31.37;;;;;;;;;;5007768;28;20491;-67
2023/03/17 14:39:21;;;;;;;21.17;17.53;;;;;;;;;;4995661;28;20445;-68
2023/03/17 14:41:57;;;;;;;7.63;6.83;;;;;;;;;;4995588;28;20456;-67
2023/03/17 14:44:24;;;;;;;4.73;4.30;;;;;;;;;;4995541;28;20448;-67
2023/03/17 14:46:52;;;;;;;6.30;5.70;;;;;;;;;;4995968;28;20475;-68
2023/03/17 14:49:20;;;;;;;17.83;15.83;;;;;;;;;;4995465;28;20518;-67
2023/03/17 14:51:49;;;;;;;7.30;6.00;;;;;;;;;;4995702;28;20467;-67
2023/03/17 14:54:17;;;;;;;5.67;4.10;;;;;;;;;;4995447;28;20446;-68
2023/03/17 14:56:47;;;;;;;20.57;16.40;;;;;;;;;;4995708;28;20487;-67
2023/03/17 14:59:18;;;;;;;7.90;6.97;;;;;;;;;;4995243;28;20432;-67
2023/03/17 15:01:47;;;;;;;11.53;7.90;;;;;;;;;;4995625;28;20434;-67
2023/03/17 15:04:17;;;;;;;6.90;4.43;;;;;;;;;;4995494;28;20914;-67